Time;durP1;ratioP1;P1;durP2;ratioP2;P2;SDS_P1;SDS_P2;PMS_P1;PMS_P2;Temp;Humidity;BMP_temperature;BMP_pressure;BME280_temperature;BME280_humidity;BME280_pressure;Samples;Min_cycle;Max_cycle;Signal;HPM_P1;HPM_P2
2024/02/29 00:00:39;;;;;;;3.72;2.72;;;19.10;54.00;;;;;;5013351;28;20036;-48
2024/02/29 00:03:05;;;;;;;3.58;2.60;;;19.10;53.90;;;;;;5013301;28;20026;-51
2024/02/29 00:05:30;;;;;;;3.00;2.60;;;19.10;53.90;;;;;;5004323;28;20041;-53
2024/02/29 00:07:56;;;;;;;3.78;2.55;;;19.10;54.20;;;;;;5008158;28;22584;-48
2024/02/29 00:10:21;;;;;;;5.43;2.97;;;19.10;54.00;;;;;;5015611;28;20022;-48
2024/02/29 00:12:47;;;;;;;3.08;2.70;;;19.10;54.20;;;;;;5013056;28;20080;-53
2024/02/29 00:15:12;;;;;;;3.80;3.03;;;19.10;54.10;;;;;;5014527;28;20026;-50
2024/02/29 00:17:38;;;;;;;2.67;2.40;;;19.10;53.90;;;;;;5011539;28;20037;-47
2024/02/29 00:20:04;;;;;;;3.70;2.70;;;19.20;53.90;;;;;;5011786;28;20112;-49
2024/02/29 00:22:30;;;;;;;3.25;2.88;;;19.10;53.60;;;;;;5013283;28;20033;-47
2024/02/29 00:24:55;;;;;;;3.63;2.72;;;19.10;53.70;;;;;;5015046;28;22162;-51
2024/02/29 00:27:21;;;;;;;3.47;2.53;;;19.10;54.00;;;;;;5013058;28;20040;-53
2024/02/29 00:29:47;;;;;;;3.28;2.53;;;19.10;54.00;;;;;;5014575;28;20558;-53
2024/02/29 00:32:12;;;;;;;2.45;2.05;;;19.10;54.00;;;;;;5011268;28;20162;-47
2024/02/29 00:34:38;;;;;;;3.10;2.63;;;19.10;54.00;;;;;;5012505;28;20058;-48
2024/02/29 00:37:04;;;;;;;3.08;2.13;;;19.10;54.00;;;;;;5012583;28;20029;-51
2024/02/29 00:39:29;;;;;;;2.50;2.20;;;19.00;53.90;;;;;;5015677;28;20375;-51
2024/02/29 00:41:55;;;;;;;2.90;2.25;;;19.10;54.00;;;;;;5015434;28;20076;-47
2024/02/29 00:44:20;;;;;;;2.72;2.38;;;19.10;54.00;;;;;;5016074;28;20042;-48
2024/02/29 00:46:45;;;;;;;2.70;2.28;;;19.10;53.90;;;;;;5017461;28;20041;-53
2024/02/29 00:49:13;;;;;;;2.42;2.15;;;19.10;54.10;;;;;;5014755;28;20042;-49
2024/02/29 00:51:39;;;;;;;2.53;2.10;;;19.00;53.70;;;;;;5019412;28;20129;-48
2024/02/29 00:54:04;;;;;;;2.63;2.08;;;19.10;54.10;;;;;;5013316;28;20046;-51
2024/02/29 00:56:30;;;;;;;3.65;2.38;;;19.10;54.00;;;;;;5016645;28;20072;-53
2024/02/29 00:58:55;;;;;;;2.67;2.33;;;19.10;53.90;;;;;;5014981;28;20037;-51
2024/02/29 01:01:21;;;;;;;2.33;2.13;;;19.00;53.90;;;;;;5005275;28;20033;-47
2024/02/29 01:03:46;;;;;;;2.58;2.10;;;19.10;53.90;;;;;;5014374;28;20045;-50
2024/02/29 01:06:12;;;;;;;2.63;2.10;;;19.00;54.00;;;;;;5013192;28;20628;-53
2024/02/29 01:08:38;;;;;;;1.83;1.65;;;19.00;53.80;;;;;;5013085;28;20033;-49
2024/02/29 01:11:03;;;;;;;2.60;2.40;;;19.00;54.00;;;;;;5011886;28;20026;-46
2024/02/29 01:13:30;;;;;;;2.80;2.20;;;19.00;54.10;;;;;;5014426;28;20026;-50
2024/02/29 01:15:55;;;;;;;2.40;2.05;;;19.00;54.00;;;;;;5015902;28;20044;-47
2024/02/29 01:18:21;;;;;;;2.35;1.88;;;19.00;53.90;;;;;;4998395;28;20034;-48
2024/02/29 01:20:46;;;;;;;3.03;2.40;;;19.00;54.00;;;;;;5017076;28;20036;-52
2024/02/29 01:23:12;;;;;;;2.33;2.08;;;19.00;53.80;;;;;;5015444;28;20029;-49
2024/02/29 01:25:38;;;;;;;2.70;2.50;;;19.00;53.90;;;;;;5016361;28;20697;-49
2024/02/29 01:28:03;;;;;;;2.47;2.17;;;19.00;53.90;;;;;;5014363;28;20486;-50
2024/02/29 01:30:29;;;;;;;2.95;2.13;;;19.00;53.80;;;;;;5014002;28;20112;-52
2024/02/29 01:32:54;;;;;;;2.35;2.15;;;19.00;54.00;;;;;;5016243;28;20109;-49
2024/02/29 01:35:20;;;;;;;2.47;2.00;;;19.00;53.70;;;;;;5013534;28;20040;-48
2024/02/29 01:37:45;;;;;;;2.55;2.35;;;19.00;53.60;;;;;;5020092;28;20450;-48
2024/02/29 01:40:11;;;;;;;2.97;2.00;;;19.00;53.90;;;;;;5015165;28;20030;-51
2024/02/29 01:42:41;;;;;;;1.90;1.70;;;19.00;53.90;;;;;;5015237;28;21373;-51
2024/02/29 01:45:07;;;;;;;3.83;1.95;;;19.00;53.60;;;;;;5012820;28;20034;-55
2024/02/29 01:47:32;;;;;;;2.10;1.70;;;19.00;53.80;;;;;;5017513;28;20764;-48
2024/02/29 01:50:02;;;;;;;2.05;1.77;;;19.00;54.00;;;;;;5011992;28;20034;-47
2024/02/29 01:52:30;;;;;;;3.65;2.05;;;19.00;53.30;;;;;;4996991;28;20029;-48
2024/02/29 01:54:57;;;;;;;2.50;2.17;;;19.00;53.70;;;;;;5004303;28;20064;-49
2024/02/29 01:57:23;;;;;;;2.22;1.95;;;19.00;53.80;;;;;;5008968;28;20056;-49
2024/02/29 01:59:50;;;;;;;2.30;1.95;;;19.00;53.60;;;;;;5011440;28;20029;-53
2024/02/29 02:02:15;;;;;;;2.30;2.05;;;19.00;53.70;;;;;;5013126;28;20439;-55
2024/02/29 02:04:41;;;;;;;2.13;1.88;;;19.00;53.90;;;;;;5012639;28;20027;-51
2024/02/29 02:07:08;;;;;;;2.40;2.13;;;19.00;53.70;;;;;;5010652;28;20038;-49
2024/02/29 02:09:35;;;;;;;2.35;2.15;;;19.00;53.60;;;;;;5011525;28;20029;-53
2024/02/29 02:12:01;;;;;;;2.20;1.80;;;19.00;53.80;;;;;;5014880;28;20030;-50
2024/02/29 02:14:26;;;;;;;1.88;1.55;;;19.00;53.60;;;;;;5011300;28;20427;-51
2024/02/29 02:16:51;;;;;;;2.25;2.05;;;18.90;53.40;;;;;;5012748;28;20034;-54
2024/02/29 02:19:17;;;;;;;2.40;2.20;;;18.90;53.30;;;;;;5009759;28;20109;-50
2024/02/29 02:21:43;;;;;;;2.08;1.75;;;18.90;53.30;;;;;;5001450;28;20440;-48
2024/02/29 02:24:09;;;;;;;2.10;1.90;;;18.80;53.40;;;;;;5012700;28;20124;-51
2024/02/29 02:26:35;;;;;;;2.42;1.88;;;18.80;53.50;;;;;;5010219;28;20554;-51
2024/02/29 02:29:06;;;;;;;2.78;2.08;;;18.80;53.60;;;;;;5015914;28;20037;-48
2024/02/29 02:31:31;;;;;;;2.47;2.17;;;18.80;53.50;;;;;;5011412;28;20037;-48
2024/02/29 02:33:57;;;;;;;3.10;2.20;;;18.70;53.50;;;;;;5010506;28;20034;-47
2024/02/29 02:36:23;;;;;;;2.72;2.40;;;18.70;53.40;;;;;;5014746;28;20088;-50
2024/02/29 02:38:48;;;;;;;2.35;2.05;;;18.70;53.60;;;;;;5013298;28;20037;-52
2024/02/29 02:41:14;;;;;;;3.03;1.92;;;18.70;53.70;;;;;;5010886;28;20026;-48
2024/02/29 02:43:39;;;;;;;3.15;2.03;;;18.70;53.70;;;;;;5019390;28;20076;-47
2024/02/29 02:46:05;;;;;;;2.25;1.80;;;18.70;53.70;;;;;;5001989;28;20116;-55
2024/02/29 02:48:30;;;;;;;3.30;2.30;;;18.70;53.50;;;;;;5012943;28;20025;-51
2024/02/29 02:50:56;;;;;;;2.95;2.00;;;18.70;53.60;;;;;;5011909;28;20041;-47
2024/02/29 02:53:21;;;;;;;2.65;2.25;;;18.70;53.50;;;;;;5009294;28;20034;-47
2024/02/29 02:55:47;;;;;;;3.10;2.70;;;18.80;53.30;;;;;;4999536;28;20029;-48
2024/02/29 02:58:12;;;;;;;3.25;2.30;;;18.80;53.20;;;;;;5007486;28;20034;-56
2024/02/29 03:00:38;;;;;;;3.53;2.53;;;18.80;53.20;;;;;;4990409;28;20112;-51
2024/02/29 03:03:04;;;;;;;2.50;2.30;;;18.80;53.10;;;;;;5010778;28;20034;-51
2024/02/29 03:05:29;;;;;;;3.55;2.15;;;18.80;53.20;;;;;;5013230;28;20614;-51
2024/02/29 03:07:55;;;;;;;4.18;2.13;;;18.90;53.20;;;;;;5000728;28;20034;-49
2024/02/29 03:10:20;;;;;;;2.45;2.25;;;18.90;53.20;;;;;;4991209;28;20153;-52
2024/02/29 03:12:47;;;;;;;2.70;2.33;;;18.90;53.20;;;;;;4977494;28;20033;-51
2024/02/29 03:15:13;;;;;;;2.88;2.40;;;19.00;53.00;;;;;;5007297;28;20112;-50
2024/02/29 03:17:38;;;;;;;3.88;2.40;;;18.90;52.70;;;;;;5008237;28;20100;-51
2024/02/29 03:20:11;;;;;;;2.70;2.50;;;19.00;53.00;;;;;;5016023;28;20199;-50
2024/02/29 03:22:38;;;;;;;4.32;2.28;;;19.00;53.00;;;;;;5008847;28;20513;-50
2024/02/29 03:25:04;;;;;;;2.40;2.17;;;19.00;53.00;;;;;;5008835;28;20037;-50
2024/02/29 03:27:29;;;;;;;4.63;2.05;;;19.00;52.80;;;;;;5008487;28;20095;-49
2024/02/29 03:29:54;;;;;;;5.88;2.45;;;19.00;53.00;;;;;;5006725;28;20057;-51
2024/02/29 03:32:20;;;;;;;3.65;2.65;;;19.00;52.90;;;;;;4992584;28;20034;-49
2024/02/29 03:34:46;;;;;;;2.45;1.90;;;19.00;52.80;;;;;;5011381;28;20402;-50
2024/02/29 03:37:13;;;;;;;2.72;2.33;;;19.00;52.80;;;;;;5005107;28;20441;-52
2024/02/29 03:39:39;;;;;;;4.53;2.63;;;19.00;52.90;;;;;;5016370;28;20030;-51
2024/02/29 03:42:04;;;;;;;2.88;2.40;;;19.00;52.60;;;;;;5011709;28;20944;-51
2024/02/29 03:44:30;;;;;;;3.55;2.17;;;19.00;52.70;;;;;;5013431;28;20176;-50
2024/02/29 03:46:55;;;;;;;3.35;2.67;;;19.00;52.70;;;;;;4988159;28;20037;-51
2024/02/29 03:49:21;;;;;;;3.20;2.63;;;19.00;52.80;;;;;;5012569;28;20509;-50
2024/02/29 03:51:46;;;;;;;2.35;2.15;;;19.00;52.30;;;;;;4991629;28;20049;-50
2024/02/29 03:54:12;;;;;;;5.07;2.10;;;19.00;52.30;;;;;;5009221;28;20060;-48
2024/02/29 03:56:37;;;;;;;3.33;2.55;;;19.10;52.60;;;;;;5009706;28;20044;-52
2024/02/29 03:59:03;;;;;;;3.15;2.85;;;19.10;52.60;;;;;;5008997;28;20377;-49
2024/02/29 04:01:29;;;;;;;2.28;2.08;;;19.10;52.60;;;;;;5000659;28;20063;-50
2024/02/29 04:03:54;;;;;;;2.80;2.50;;;19.10;52.50;;;;;;5010962;28;20196;-49
2024/02/29 04:06:20;;;;;;;2.92;2.65;;;19.10;52.40;;;;;;5001161;28;20125;-48
2024/02/29 04:08:45;;;;;;;2.55;2.28;;;19.10;52.40;;;;;;5005822;28;20033;-51
2024/02/29 04:11:12;;;;;;;3.78;2.60;;;19.10;52.30;;;;;;5006329;28;20041;-53
2024/02/29 04:13:38;;;;;;;2.63;2.22;;;19.20;52.50;;;;;;5012571;28;20037;-58
2024/02/29 04:16:04;;;;;;;2.63;2.30;;;19.20;52.30;;;;;;5010396;28;20025;-51
2024/02/29 04:18:30;;;;;;;2.95;2.33;;;19.20;52.20;;;;;;5013403;28;20040;-51
2024/02/29 04:20:55;;;;;;;2.75;2.25;;;19.20;52.30;;;;;;5012242;28;20030;-49
2024/02/29 04:23:21;;;;;;;2.72;2.15;;;19.20;52.10;;;;;;5014049;28;20026;-49
2024/02/29 04:25:47;;;;;;;2.50;2.13;;;19.20;52.00;;;;;;5017586;28;20538;-51
2024/02/29 04:28:14;;;;;;;2.47;2.28;;;19.20;52.10;;;;;;5012574;28;20036;-49
2024/02/29 04:30:41;;;;;;;2.83;2.40;;;19.20;51.90;;;;;;5020583;28;20029;-52
2024/02/29 04:33:06;;;;;;;2.70;2.33;;;19.20;51.70;;;;;;5014796;28;20662;-52
2024/02/29 04:35:33;;;;;;;2.53;2.30;;;19.30;51.80;;;;;;5018261;28;20048;-51
2024/02/29 04:37:59;;;;;;;2.30;2.10;;;19.20;52.50;;;;;;5012782;28;20148;-49
2024/02/29 04:40:26;;;;;;;2.42;2.22;;;19.20;52.60;;;;;;4997404;28;20795;-50
2024/02/29 04:42:52;;;;;;;2.65;2.25;;;19.20;52.60;;;;;;5011717;28;20030;-49
2024/02/29 04:45:18;;;;;;;2.85;2.55;;;19.20;52.60;;;;;;5011872;28;20034;-48
2024/02/29 04:47:43;;;;;;;2.22;2.03;;;19.20;52.70;;;;;;5014289;28;20037;-47
2024/02/29 04:50:09;;;;;;;2.80;2.50;;;19.20;52.60;;;;;;5018084;28;20053;-51
2024/02/29 04:52:35;;;;;;;2.92;2.10;;;19.20;52.60;;;;;;5011954;28;20519;-51
2024/02/29 04:55:00;;;;;;;2.33;2.13;;;19.20;52.60;;;;;;5016311;28;20724;-49
2024/02/29 04:57:26;;;;;;;2.58;2.38;;;19.20;52.90;;;;;;5012442;28;20171;-50
2024/02/29 04:59:51;;;;;;;2.65;2.30;;;19.20;52.80;;;;;;5005402;28;20037;-50
2024/02/29 05:02:17;;;;;;;3.03;2.65;;;19.20;52.80;;;;;;5007907;28;20430;-47
2024/02/29 05:04:43;;;;;;;2.63;2.33;;;19.20;52.80;;;;;;5015198;28;20474;-52
2024/02/29 05:07:10;;;;;;;3.13;2.35;;;19.20;52.80;;;;;;5007321;28;20030;-50
2024/02/29 05:09:36;;;;;;;2.40;2.13;;;19.20;53.60;;;;;;4993858;28;20100;-50
2024/02/29 05:12:01;;;;;;;3.17;2.50;;;19.20;53.10;;;;;;5011341;28;20077;-51
2024/02/29 05:14:27;;;;;;;3.33;2.80;;;19.20;52.90;;;;;;5008180;28;20030;-51
2024/02/29 05:16:53;;;;;;;3.10;2.67;;;19.20;52.90;;;;;;5012178;28;20030;-50
2024/02/29 05:19:18;;;;;;;3.58;2.78;;;19.10;52.80;;;;;;5014069;28;20094;-49
2024/02/29 05:21:45;;;;;;;2.83;2.20;;;19.10;53.00;;;;;;5013043;28;20060;-50
2024/02/29 05:24:11;;;;;;;3.13;2.47;;;19.10;53.00;;;;;;5012740;28;20049;-48
2024/02/29 05:26:36;;;;;;;2.92;2.55;;;19.10;53.10;;;;;;5005372;28;20557;-48
2024/02/29 05:29:03;;;;;;;3.72;2.50;;;19.10;53.00;;;;;;5010579;28;20076;-49
2024/02/29 05:31:28;;;;;;;2.78;2.38;;;19.00;53.10;;;;;;5009481;28;20053;-50
2024/02/29 05:33:54;;;;;;;3.13;2.28;;;19.00;53.10;;;;;;5010547;28;20406;-50
2024/02/29 05:36:19;;;;;;;3.30;2.65;;;19.00;53.20;;;;;;5003540;28;20037;-49
2024/02/29 05:38:49;;;;;;;2.40;2.20;;;19.00;53.20;;;;;;5010455;28;20034;-50
2024/02/29 05:41:15;;;;;;;5.63;2.38;;;19.00;53.10;;;;;;5016085;28;20064;-49
2024/02/29 05:43:41;;;;;;;6.28;2.67;;;19.00;53.30;;;;;;5011564;28;20049;-50
2024/02/29 05:46:06;;;;;;;2.78;2.47;;;19.00;53.30;;;;;;5017357;28;20030;-49
2024/02/29 05:48:35;;;;;;;4.10;1.92;;;19.00;53.40;;;;;;5011201;28;20026;-50
2024/02/29 05:51:01;;;;;;;3.20;2.58;;;18.90;53.40;;;;;;5009617;28;20040;-49
2024/02/29 05:53:27;;;;;;;3.08;2.20;;;19.00;53.50;;;;;;5009932;28;20026;-51
2024/02/29 05:55:53;;;;;;;5.80;2.90;;;19.00;53.30;;;;;;5012838;28;20084;-48
2024/02/29 05:58:18;;;;;;;4.22;3.00;;;19.00;53.50;;;;;;5009640;28;20043;-51
2024/02/29 06:00:44;;;;;;;4.22;2.90;;;19.00;53.60;;;;;;5011792;28;21904;-51
2024/02/29 06:03:10;;;;;;;5.43;3.22;;;18.90;53.60;;;;;;5014047;28;20430;-50
2024/02/29 06:05:35;;;;;;;5.32;3.15;;;18.90;53.70;;;;;;5013271;28;20033;-50
2024/02/29 06:08:03;;;;;;;6.70;3.75;;;18.90;53.80;;;;;;5011815;28;20498;-50
2024/02/29 06:10:29;;;;;;;5.45;3.92;;;18.90;53.80;;;;;;5010868;28;20045;-50
2024/02/29 06:12:54;;;;;;;6.35;3.50;;;18.80;53.70;;;;;;5021583;28;20044;-53
2024/02/29 06:15:20;;;;;;;6.18;3.88;;;18.80;53.60;;;;;;5008585;28;20073;-50
2024/02/29 06:17:46;;;;;;;9.27;4.03;;;18.80;53.60;;;;;;5014806;28;21391;-51
2024/02/29 06:20:12;;;;;;;7.28;4.18;;;18.80;53.60;;;;;;5008332;28;20096;-50
2024/02/29 06:22:41;;;;;;;5.53;4.15;;;18.80;53.70;;;;;;5015956;28;20041;-49
2024/02/29 06:25:08;;;;;;;6.78;4.00;;;18.80;53.80;;;;;;5005772;28;20033;-51
2024/02/29 06:27:34;;;;;;;7.15;3.90;;;18.80;53.80;;;;;;5010601;28;20379;-49
2024/02/29 06:30:02;;;;;;;5.72;3.30;;;18.90;53.70;;;;;;5016885;28;20487;-50
2024/02/29 06:32:27;;;;;;;8.10;3.83;;;18.90;53.70;;;;;;5015068;28;20041;-48
2024/02/29 06:34:53;;;;;;;6.18;3.58;;;19.00;53.40;;;;;;5013460;28;20582;-50
2024/02/29 06:37:18;;;;;;;6.63;3.53;;;19.00;53.30;;;;;;5007389;28;20045;-51
2024/02/29 06:39:44;;;;;;;5.88;4.03;;;19.00;53.10;;;;;;5011038;28;20131;-55
2024/02/29 06:42:09;;;;;;;5.05;3.85;;;19.10;52.90;;;;;;5013464;28;20041;-49
2024/02/29 06:44:35;;;;;;;4.80;3.42;;;19.10;52.40;;;;;;5011715;28;20773;-47
2024/02/29 06:47:00;;;;;;;4.88;3.25;;;19.20;52.90;;;;;;5013590;28;20033;-48
2024/02/29 06:49:26;;;;;;;4.05;3.15;;;19.20;52.40;;;;;;5007529;28;20033;-54
2024/02/29 06:51:51;;;;;;;7.35;3.60;;;19.20;52.30;;;;;;5021021;28;20068;-49
2024/02/29 06:54:17;;;;;;;6.53;3.72;;;19.30;52.40;;;;;;5010747;28;20243;-48
2024/02/29 06:56:44;;;;;;;6.45;3.65;;;19.30;52.50;;;;;;5015716;28;20525;-50
2024/02/29 06:59:09;;;;;;;8.18;4.55;;;19.40;52.80;;;;;;5010615;28;20034;-49
2024/02/29 07:01:36;;;;;;;7.03;5.18;;;19.40;53.00;;;;;;5008655;28;20034;-48
2024/02/29 07:04:02;;;;;;;8.95;4.50;;;19.30;53.30;;;;;;5012609;28;20367;-47
2024/02/29 07:06:28;;;;;;;7.35;4.50;;;19.30;53.50;;;;;;5008855;28;20045;-50
2024/02/29 07:08:53;;;;;;;5.78;4.22;;;19.30;53.70;;;;;;5011815;28;20077;-49
2024/02/29 07:11:19;;;;;;;9.80;5.00;;;19.20;53.80;;;;;;5003819;28;20014;-52
2024/02/29 07:13:46;;;;;;;10.43;5.07;;;19.20;54.10;;;;;;5009621;28;20109;-51
2024/02/29 07:16:11;;;;;;;11.40;5.05;;;19.10;54.20;;;;;;5008532;28;20030;-50
2024/02/29 07:18:37;;;;;;;7.40;4.03;;;19.10;54.20;;;;;;5014263;28;20033;-51
2024/02/29 07:21:04;;;;;;;8.63;4.53;;;19.00;54.20;;;;;;5011356;28;20028;-48
2024/02/29 07:23:31;;;;;;;10.57;4.10;;;19.00;54.30;;;;;;5012157;28;20034;-52
2024/02/29 07:26:05;;;;;;;8.85;4.40;;;19.00;54.20;;;;;;5010231;28;20040;-54
2024/02/29 07:28:31;;;;;;;6.70;4.03;;;19.00;54.10;;;;;;5008878;28;20026;-54
2024/02/29 07:30:56;;;;;;;10.65;4.50;;;19.00;54.00;;;;;;5013388;28;20048;-53
2024/02/29 07:33:23;;;;;;;7.72;4.88;;;19.00;54.10;;;;;;5011787;28;20022;-47
2024/02/29 07:35:48;;;;;;;5.47;4.18;;;18.90;54.10;;;;;;5011947;28;20022;-47
2024/02/29 07:38:14;;;;;;;10.25;4.30;;;18.90;54.70;;;;;;5018636;28;20029;-52
2024/02/29 07:40:39;;;;;;;6.47;4.22;;;18.90;54.20;;;;;;5010442;28;20487;-55
2024/02/29 07:43:05;;;;;;;7.78;3.80;;;18.80;54.20;;;;;;5008882;28;20034;-56
2024/02/29 07:45:31;;;;;;;9.02;4.40;;;18.80;54.20;;;;;;5009411;28;20038;-48
2024/02/29 07:47:56;;;;;;;7.95;3.90;;;18.80;54.20;;;;;;4963667;28;20041;-47
2024/02/29 07:50:22;;;;;;;6.38;3.78;;;18.80;54.10;;;;;;4990574;28;20049;-50
2024/02/29 07:52:47;;;;;;;5.07;3.80;;;18.80;54.10;;;;;;5013602;28;20038;-55
2024/02/29 07:55:14;;;;;;;8.55;3.75;;;18.80;54.10;;;;;;5009620;28;20530;-49
2024/02/29 07:57:40;;;;;;;6.00;3.80;;;18.80;54.10;;;;;;4988200;28;20076;-48
2024/02/29 08:00:07;;;;;;;4.72;3.65;;;18.80;54.10;;;;;;4992825;28;20034;-48
2024/02/29 08:02:33;;;;;;;6.32;3.83;;;18.80;54.10;;;;;;5014401;28;20060;-51
2024/02/29 08:04:59;;;;;;;6.47;4.05;;;18.80;54.20;;;;;;5012823;28;20494;-49
2024/02/29 08:07:25;;;;;;;7.90;4.20;;;18.90;54.10;;;;;;5012105;28;20045;-48
2024/02/29 08:09:50;;;;;;;8.52;3.38;;;18.80;54.10;;;;;;4996070;28;20033;-49
2024/02/29 08:12:17;;;;;;;7.78;3.58;;;18.80;54.20;;;;;;5012254;28;20044;-49
2024/02/29 08:14:44;;;;;;;4.50;3.17;;;18.90;54.20;;;;;;5007120;28;20071;-49
2024/02/29 08:17:09;;;;;;;4.60;3.35;;;18.80;54.20;;;;;;5008548;28;20045;-50
2024/02/29 08:19:36;;;;;;;9.38;3.08;;;18.90;54.90;;;;;;5014009;28;20176;-51
2024/02/29 08:22:01;;;;;;;5.03;3.50;;;18.80;54.20;;;;;;5011540;28;20506;-54
2024/02/29 08:24:27;;;;;;;4.82;3.17;;;18.80;54.20;;;;;;5006787;28;20033;-51
2024/02/29 08:26:52;;;;;;;4.90;3.08;;;18.80;54.30;;;;;;5008439;28;20551;-49
2024/02/29 08:29:18;;;;;;;5.32;3.90;;;18.80;54.40;;;;;;5006350;28;20041;-50
2024/02/29 08:31:44;;;;;;;5.35;3.10;;;18.80;55.00;;;;;;5009987;28;20903;-51
2024/02/29 08:34:09;;;;;;;3.67;3.15;;;18.80;54.40;;;;;;5010949;28;20026;-51
2024/02/29 08:36:35;;;;;;;5.20;3.10;;;18.80;54.50;;;;;;5010206;28;20033;-50
2024/02/29 08:39:00;;;;;;;5.55;3.35;;;18.80;54.50;;;;;;5009453;28;20030;-50
2024/02/29 08:41:26;;;;;;;3.40;2.83;;;18.80;54.50;;;;;;5010086;28;20030;-61
2024/02/29 08:43:51;;;;;;;4.90;3.45;;;18.80;54.50;;;;;;5010246;28;20037;-51
2024/02/29 08:46:17;;;;;;;4.72;3.30;;;18.80;54.50;;;;;;5011504;28;20038;-49
2024/02/29 08:48:43;;;;;;;4.70;3.50;;;18.80;54.60;;;;;;5012442;28;20071;-48
2024/02/29 08:51:08;;;;;;;4.25;3.03;;;18.80;54.60;;;;;;5001658;28;20033;-47
2024/02/29 08:53:34;;;;;;;3.88;2.85;;;18.80;54.70;;;;;;5011947;28;20037;-50
2024/02/29 08:56:00;;;;;;;5.70;3.40;;;18.80;54.70;;;;;;5000078;28;20038;-49
2024/02/29 08:58:26;;;;;;;5.18;4.07;;;18.80;54.70;;;;;;5012845;28;20171;-49
2024/02/29 09:00:51;;;;;;;3.70;2.90;;;18.80;54.70;;;;;;5015004;28;20082;-48
2024/02/29 09:03:17;;;;;;;3.47;2.80;;;18.80;54.80;;;;;;5016187;28;20318;-51
2024/02/29 09:05:43;;;;;;;3.05;2.60;;;18.80;54.80;;;;;;5014681;28;20042;-49
2024/02/29 09:08:09;;;;;;;3.95;3.05;;;18.80;54.80;;;;;;5013914;28;20034;-52
2024/02/29 09:10:36;;;;;;;3.85;3.10;;;18.80;54.80;;;;;;5018395;28;20040;-50
2024/02/29 09:13:04;;;;;;;5.13;3.30;;;18.80;54.80;;;;;;5012478;28;20033;-57
2024/02/29 09:15:30;;;;;;;3.83;2.72;;;18.80;54.80;;;;;;5016087;28;20076;-47
2024/02/29 09:17:55;;;;;;;4.72;3.17;;;18.90;55.00;;;;;;5013393;28;20702;-49
2024/02/29 09:20:21;;;;;;;3.17;2.88;;;18.90;54.90;;;;;;5013299;28;20033;-50
2024/02/29 09:22:49;;;;;;;5.95;3.03;;;18.90;54.90;;;;;;5013184;28;20057;-49
2024/02/29 09:25:15;;;;;;;3.08;2.78;;;18.80;54.80;;;;;;5016139;28;20067;-52
2024/02/29 09:27:40;;;;;;;3.78;3.25;;;18.80;54.80;;;;;;5014183;28;20084;-49
2024/02/29 09:30:06;;;;;;;3.72;2.58;;;18.80;54.80;;;;;;5015126;28;20907;-50
2024/02/29 09:32:31;;;;;;;5.68;3.17;;;18.90;54.80;;;;;;5014792;28;20041;-49
2024/02/29 09:34:57;;;;;;;5.45;3.58;;;18.90;54.70;;;;;;5015228;28;20595;-51
2024/02/29 09:37:22;;;;;;;5.47;3.47;;;18.90;54.70;;;;;;5011066;28;20084;-48
2024/02/29 09:39:48;;;;;;;5.70;3.53;;;18.90;54.60;;;;;;5017990;28;20036;-50
2024/02/29 09:42:13;;;;;;;4.55;2.75;;;18.90;54.50;;;;;;5008635;28;20033;-51
2024/02/29 09:44:39;;;;;;;5.70;3.20;;;18.90;54.40;;;;;;5015624;28;20057;-50
2024/02/29 09:47:05;;;;;;;3.50;2.63;;;19.00;54.40;;;;;;5010394;28;20038;-49
2024/02/29 09:49:31;;;;;;;3.75;3.10;;;19.00;54.40;;;;;;5012578;28;20038;-48
2024/02/29 09:51:58;;;;;;;3.53;3.13;;;19.00;54.40;;;;;;5014083;28;20029;-57
2024/02/29 09:54:27;;;;;;;3.65;3.22;;;19.00;54.30;;;;;;4999723;28;20641;-48
2024/02/29 09:56:53;;;;;;;3.30;2.97;;;19.10;54.30;;;;;;4988094;28;20057;-50
2024/02/29 09:59:21;;;;;;;3.22;2.88;;;19.10;54.30;;;;;;5014405;28;20068;-48
2024/02/29 10:01:49;;;;;;;3.17;2.88;;;19.10;54.30;;;;;;5015778;28;20228;-50
2024/02/29 10:04:16;;;;;;;3.72;3.40;;;19.10;54.20;;;;;;5015357;28;20037;-51
2024/02/29 10:06:41;;;;;;;4.32;2.88;;;19.10;54.20;;;;;;5015118;28;20060;-47
2024/02/29 10:09:07;;;;;;;3.30;2.83;;;19.10;54.20;;;;;;5012905;28;20060;-50
2024/02/29 10:11:32;;;;;;;4.03;2.85;;;19.10;54.10;;;;;;5011113;28;20047;-48
2024/02/29 10:14:01;;;;;;;3.30;3.00;;;19.20;54.20;;;;;;5014083;28;20076;-50
2024/02/29 10:16:27;;;;;;;3.10;2.80;;;19.20;54.10;;;;;;5015254;28;20037;-48
2024/02/29 10:18:52;;;;;;;3.55;3.25;;;19.20;54.10;;;;;;5013453;28;20026;-53
2024/02/29 10:21:18;;;;;;;3.42;3.13;;;19.20;54.00;;;;;;5014899;28;20543;-51
2024/02/29 10:23:43;;;;;;;4.28;3.63;;;19.20;54.00;;;;;;5011728;28;20048;-51
2024/02/29 10:26:09;;;;;;;4.50;3.10;;;19.20;54.00;;;;;;5017089;28;20054;-52
2024/02/29 10:28:35;;;;;;;5.72;3.65;;;19.30;54.10;;;;;;5011728;28;20037;-48
2024/02/29 10:31:01;;;;;;;3.22;2.92;;;19.20;53.90;;;;;;5033564;23;20092;-52
2024/02/29 10:33:30;;;;;;;3.20;2.50;;;19.30;54.00;;;;;;5032867;28;20068;-48
2024/02/29 10:35:56;;;;;;;3.92;2.97;;;19.30;54.00;;;;;;5037847;28;20281;-50
2024/02/29 10:38:22;;;;;;;6.28;3.28;;;19.30;53.90;;;;;;5032010;28;20034;-48
2024/02/29 10:40:50;;;;;;;3.47;3.17;;;19.30;53.90;;;;;;5022388;28;20039;-49
2024/02/29 10:43:19;;;;;;;3.35;3.05;;;19.40;54.00;;;;;;5018473;28;20028;-50
2024/02/29 10:45:48;;;;;;;5.53;3.42;;;19.40;54.00;;;;;;5040274;28;20029;-49
2024/02/29 10:48:23;;;;;;;4.70;3.13;;;19.40;54.10;;;;;;5031182;28;20055;-50
2024/02/29 10:51:16;;;;;;;4.32;3.15;;;19.40;54.20;;;;;;5034678;28;20037;-51
2024/02/29 10:54:09;;;;;;;5.68;3.80;;;19.50;54.30;;;;;;5030455;28;20025;-48
2024/02/29 10:56:36;;;;;;;5.53;3.47;;;19.40;54.30;;;;;;5031509;28;20148;-48
2024/02/29 10:59:04;;;;;;;6.05;3.75;;;19.50;54.40;;;;;;5031095;28;20036;-49
2024/02/29 11:01:31;;;;;;;3.78;3.22;;;19.50;54.40;;;;;;5033486;28;20053;-48
2024/02/29 11:03:56;;;;;;;4.05;3.17;;;19.50;54.40;;;;;;5037610;28;20262;-49
2024/02/29 11:06:23;;;;;;;5.13;3.65;;;19.50;54.50;;;;;;5034787;28;20044;-50
2024/02/29 11:08:50;;;;;;;4.93;3.25;;;19.60;54.60;;;;;;5034682;28;20048;-50
2024/02/29 11:11:26;;;;;;;6.15;3.80;;;19.60;54.70;;;;;;5033532;28;20064;-49
2024/02/29 11:14:09;;;;;;;6.45;3.25;;;19.60;54.60;;;;;;5037681;28;20022;-49
2024/02/29 11:16:48;;;;;;;5.47;3.35;;;19.70;54.70;;;;;;5013504;28;20026;-48
2024/02/29 11:19:16;;;;;;;5.47;2.90;;;19.70;54.70;;;;;;5036162;28;20029;-50
2024/02/29 11:21:41;;;;;;;4.25;3.25;;;19.70;54.70;;;;;;5031587;28;20670;-49
2024/02/29 11:24:08;;;;;;;4.47;3.13;;;19.70;54.70;;;;;;5032527;28;20090;-50
2024/02/29 11:26:34;;;;;;;3.45;2.40;;;19.70;54.70;;;;;;5031211;28;20108;-49
2024/02/29 11:29:19;;;;;;;4.03;3.13;;;19.80;54.70;;;;;;5022583;28;20029;-51
2024/02/29 11:31:53;;;;;;;5.95;2.97;;;19.80;54.70;;;;;;5017820;28;20055;-48
2024/02/29 11:34:20;;;;;;;5.93;3.50;;;19.80;54.70;;;;;;5039235;28;20399;-54
2024/02/29 11:36:47;;;;;;;5.68;3.10;;;19.80;54.60;;;;;;5030520;28;20136;-49
2024/02/29 11:39:23;;;;;;;3.55;2.88;;;19.80;54.60;;;;;;5037520;28;20036;-49
2024/02/29 11:41:50;;;;;;;3.47;2.83;;;19.80;54.60;;;;;;5033460;28;20041;-49
2024/02/29 11:44:16;;;;;;;5.15;3.58;;;19.90;54.70;;;;;;5035974;28;20083;-47
2024/02/29 11:46:49;;;;;;;5.13;3.63;;;19.90;54.60;;;;;;5016047;28;20432;-48
2024/02/29 11:49:20;;;;;;;4.72;3.10;;;19.90;54.70;;;;;;5034407;28;20030;-52
2024/02/29 11:51:46;;;;;;;5.65;3.58;;;19.90;54.70;;;;;;5033277;28;20039;-48
2024/02/29 11:54:15;;;;;;;4.03;3.47;;;19.90;54.70;;;;;;5031983;28;20180;-48
2024/02/29 11:56:42;;;;;;;3.40;2.85;;;19.90;54.70;;;;;;5032953;28;20068;-51
2024/02/29 11:59:10;;;;;;;3.40;3.08;;;19.90;54.70;;;;;;5034613;28;20032;-49
2024/02/29 12:01:36;;;;;;;3.78;3.08;;;19.90;54.70;;;;;;5030795;28;20029;-51
2024/02/29 12:04:02;;;;;;;3.90;3.10;;;19.90;54.80;;;;;;5031452;28;20107;-52
2024/02/29 12:06:28;;;;;;;4.47;3.20;;;19.90;54.80;;;;;;5004470;28;20112;-53
2024/02/29 12:08:55;;;;;;;4.35;3.45;;;19.90;54.90;;;;;;5030539;28;20112;-48
2024/02/29 12:11:22;;;;;;;3.67;3.17;;;19.90;54.90;;;;;;5035662;28;20035;-50
2024/02/29 12:13:47;;;;;;;3.70;3.10;;;19.90;54.90;;;;;;5035459;28;20036;-53
2024/02/29 12:16:13;;;;;;;4.40;2.92;;;19.90;54.90;;;;;;5038157;28;20397;-50
2024/02/29 12:18:39;;;;;;;4.38;3.22;;;19.90;55.00;;;;;;5031755;28;20037;-51
2024/02/29 12:21:05;;;;;;;4.85;3.70;;;19.90;55.00;;;;;;5038330;28;20036;-47
2024/02/29 12:23:34;;;;;;;3.92;3.53;;;19.80;55.10;;;;;;5031205;28;20029;-46
2024/02/29 12:26:10;;;;;;;3.38;2.80;;;19.80;55.10;;;;;;5031517;28;20036;-50
2024/02/29 12:28:36;;;;;;;3.00;2.70;;;19.80;55.20;;;;;;5031595;28;20056;-52
2024/02/29 12:31:01;;;;;;;4.80;3.05;;;19.80;55.20;;;;;;5039136;28;20064;-53
2024/02/29 12:33:30;;;;;;;4.45;3.53;;;19.80;55.20;;;;;;5036929;28;20163;-49
2024/02/29 12:35:56;;;;;;;4.22;3.42;;;19.80;55.40;;;;;;5035665;28;20021;-52
2024/02/29 12:38:23;;;;;;;3.20;2.90;;;19.80;55.40;;;;;;5030695;28;21049;-52
2024/02/29 12:40:54;;;;;;;4.00;2.80;;;19.80;55.40;;;;;;5036409;28;20044;-49